Time;durP1;ratioP1;P1;durP2;ratioP2;P2;SDS_P1;SDS_P2;PMS_P1;PMS_P2;Temp;Humidity;BMP_temperature;BMP_pressure;BME280_temperature;BME280_humidity;BME280_pressure;Samples;Min_cycle;Max_cycle;Signal;HPM_P1;HPM_P2
2022/09/14 00:00:01;;;;;;;4.75;1.60;;;22.40;99.90;;;;;;5054248;28;20435;-68
2022/09/14 00:02:27;;;;;;;5.13;0.88;;;22.40;99.90;;;;;;5054040;28;20056;-72
2022/09/14 00:04:53;;;;;;;3.75;0.98;;;22.40;99.90;;;;;;5054133;28;20399;-72
2022/09/14 00:07:19;;;;;;;2.92;0.80;;;22.70;99.90;;;;;;5054471;28;20052;-65
2022/09/14 00:09:45;;;;;;;5.05;1.23;;;22.70;99.90;;;;;;5054296;28;20036;-72
2022/09/14 00:12:11;;;;;;;2.15;1.00;;;22.80;99.90;;;;;;5054215;28;20690;-72
2022/09/14 00:14:37;;;;;;;1.45;0.80;;;22.80;99.90;;;;;;5053896;28;20069;-66
2022/09/14 00:17:03;;;;;;;1.73;0.70;;;22.80;99.90;;;;;;5053963;28;20053;-65
2022/09/14 00:19:29;;;;;;;3.85;0.70;;;22.70;99.90;;;;;;5054048;28;20032;-65
2022/09/14 00:21:57;;;;;;;3.83;0.88;;;22.70;99.90;;;;;;5053888;28;20049;-65
2022/09/14 00:24:24;;;;;;;3.85;1.42;;;22.70;99.90;;;;;;5053898;28;20544;-73
2022/09/14 00:26:50;;;;;;;3.25;0.90;;;22.90;99.90;;;;;;5053664;28;20444;-72
2022/09/14 00:29:16;;;;;;;3.05;1.20;;;22.90;99.90;;;;;;5053531;28;20045;-66
2022/09/14 00:31:42;;;;;;;0.95;0.70;;;22.90;99.90;;;;;;5053760;28;20063;-72
2022/09/14 00:34:12;;;;;;;3.00;1.00;;;22.90;99.90;;;;;;5053805;28;20041;-73
2022/09/14 00:36:40;;;;;;;1.88;0.90;;;22.70;99.90;;;;;;5053793;28;20029;-73
2022/09/14 00:39:07;;;;;;;2.63;1.10;;;22.70;99.90;;;;;;5053766;28;20072;-64
2022/09/14 00:41:36;;;;;;;3.95;1.20;;;22.70;99.90;;;;;;5053827;28;20049;-72
2022/09/14 00:44:24;;;;;;;1.75;1.00;;;22.60;99.90;;;;;;5057111;28;20072;-72
2022/09/14 00:46:53;;;;;;;2.75;1.13;;;22.50;99.90;;;;;;5061436;28;20075;-65
2022/09/14 00:49:33;;;;;;;2.83;1.00;;;22.50;99.90;;;;;;5052802;28;20090;-65
2022/09/14 00:52:07;;;;;;;2.53;1.27;;;22.40;99.90;;;;;;5038280;28;20373;-69
2022/09/14 00:54:35;;;;;;;3.72;1.13;;;22.40;99.90;;;;;;5038473;28;20049;-73
2022/09/14 00:57:02;;;;;;;1.10;0.85;;;22.40;99.90;;;;;;5040200;28;20060;-67
2022/09/14 00:59:31;;;;;;;4.78;1.00;;;22.40;99.90;;;;;;5040274;28;20392;-72
2022/09/14 01:01:57;;;;;;;2.30;0.88;;;22.30;99.90;;;;;;5040027;28;20484;-65
2022/09/14 01:04:23;;;;;;;3.45;0.90;;;22.30;99.90;;;;;;5040453;28;20068;-71
2022/09/14 01:07:13;;;;;;;2.88;1.10;;;22.30;99.90;;;;;;5040338;28;20041;-72
2022/09/14 01:10:08;;;;;;;3.80;1.20;;;22.20;99.90;;;;;;5040333;28;20501;-72
2022/09/14 01:13:05;;;;;;;3.53;1.00;;;22.30;99.90;;;;;;5040115;28;20359;-73
2022/09/14 01:15:38;;;;;;;2.15;0.95;;;22.30;99.90;;;;;;5040250;28;20038;-68
2022/09/14 01:18:20;;;;;;;2.47;1.10;;;22.30;99.90;;;;;;5040009;28;20041;-65
2022/09/14 01:21:05;;;;;;;1.90;1.00;;;22.20;99.90;;;;;;5040162;28;20029;-73
2022/09/14 01:23:52;;;;;;;2.95;1.60;;;22.20;99.90;;;;;;5039927;28;20041;-71
2022/09/14 01:26:36;;;;;;;4.00;1.83;;;22.30;99.90;;;;;;5060067;28;20037;-68
2022/09/14 01:29:40;;;;;;;3.30;1.13;;;22.30;99.90;;;;;;5060064;28;20033;-72
2022/09/14 01:32:22;;;;;;;7.05;1.42;;;22.30;99.90;;;;;;5057879;28;20090;-65
2022/09/14 01:34:55;;;;;;;2.35;1.23;;;22.60;99.90;;;;;;5059844;28;20048;-72
2022/09/14 01:37:40;;;;;;;1.63;0.90;;;22.60;99.90;;;;;;5059833;28;20419;-72
2022/09/14 01:40:14;;;;;;;1.70;1.13;;;22.60;99.90;;;;;;5059997;28;20045;-70
2022/09/14 01:42:43;;;;;;;2.70;1.33;;;22.60;99.90;;;;;;5059942;28;20049;-69
2022/09/14 01:45:12;;;;;;;5.30;1.60;;;22.40;99.90;;;;;;5059725;28;20431;-72
2022/09/14 01:47:53;;;;;;;5.30;1.17;;;22.50;99.90;;;;;;5060099;28;20037;-65
2022/09/14 01:50:34;;;;;;;6.88;1.77;;;22.40;99.90;;;;;;5059888;28;20098;-65
2022/09/14 01:53:36;;;;;;;4.53;1.25;;;22.40;99.90;;;;;;5059968;28;20049;-72
2022/09/14 01:56:25;;;;;;;5.07;1.23;;;22.40;99.90;;;;;;5054864;28;20048;-65
2022/09/14 01:59:01;;;;;;;3.50;1.40;;;22.40;99.90;;;;;;5056537;28;20539;-69
2022/09/14 02:01:33;;;;;;;2.20;1.27;;;22.40;99.90;;;;;;5056597;28;20060;-72
2022/09/14 02:04:04;;;;;;;4.35;1.02;;;22.40;99.90;;;;;;5056366;28;20068;-72
2022/09/14 02:06:40;;;;;;;2.15;1.25;;;22.40;99.90;;;;;;5056376;28;20041;-71
2022/09/14 02:09:12;;;;;;;3.72;1.67;;;22.40;99.90;;;;;;5056441;28;20045;-71
2022/09/14 02:11:39;;;;;;;2.35;1.30;;;22.40;99.90;;;;;;5056472;28;20413;-65
2022/09/14 02:14:05;;;;;;;2.40;1.30;;;22.40;99.90;;;;;;5056313;28;20044;-73
2022/09/14 02:16:31;;;;;;;2.83;1.10;;;22.30;99.90;;;;;;5056366;28;20037;-71
2022/09/14 02:19:00;;;;;;;3.08;1.25;;;22.30;99.90;;;;;;5056131;28;20124;-65
2022/09/14 02:21:29;;;;;;;4.57;1.40;;;22.30;99.90;;;;;;5055875;28;20045;-65
2022/09/14 02:23:59;;;;;;;1.65;1.13;;;22.30;99.90;;;;;;5055895;28;20045;-70
2022/09/14 02:26:26;;;;;;;7.20;1.88;;;22.30;99.90;;;;;;5056017;28;20076;-65
2022/09/14 02:28:54;;;;;;;2.80;1.20;;;22.30;99.90;;;;;;5056083;28;20036;-71
2022/09/14 02:31:29;;;;;;;4.70;1.23;;;22.30;99.90;;;;;;5056001;28;20038;-72
2022/09/14 02:34:29;;;;;;;2.75;1.30;;;22.20;99.90;;;;;;5056019;28;20048;-65
2022/09/14 02:37:11;;;;;;;3.90;1.40;;;22.20;99.90;;;;;;5055715;28;20072;-72
2022/09/14 02:40:18;;;;;;;4.80;2.00;;;22.30;99.90;;;;;;5056013;28;20048;-68
2022/09/14 02:42:49;;;;;;;5.38;1.58;;;22.20;99.90;;;;;;5053396;28;20056;-72
2022/09/14 02:45:27;;;;;;;1.80;1.30;;;22.20;99.90;;;;;;5055808;28;20032;-71
2022/09/14 02:47:59;;;;;;;2.88;1.40;;;22.20;99.90;;;;;;5055568;28;20488;-72
2022/09/14 02:50:25;;;;;;;2.95;1.63;;;;;;;;;;5055454;28;20037;-71
2022/09/14 02:53:17;;;;;;;3.42;1.75;;;22.20;99.90;;;;;;5055521;28;20557;-72
2022/09/14 02:55:56;;;;;;;2.38;1.50;;;22.30;99.90;;;;;;5055601;28;20039;-71
2022/09/14 02:58:22;;;;;;;5.07;1.67;;;22.30;99.90;;;;;;5055551;28;20056;-65
2022/09/14 03:00:49;;;;;;;6.30;1.98;;;22.40;99.90;;;;;;5055479;28;20079;-65
2022/09/14 03:03:19;;;;;;;8.57;1.55;;;22.50;99.90;;;;;;5055236;28;20496;-65
2022/09/14 03:05:45;;;;;;;4.80;1.33;;;22.40;99.90;;;;;;5055474;28;20040;-65
2022/09/14 03:08:11;;;;;;;2.28;1.83;;;22.40;99.90;;;;;;5054135;28;20075;-67
2022/09/14 03:10:40;;;;;;;3.80;1.20;;;22.30;99.90;;;;;;5055348;28;20041;-65
2022/09/14 03:13:06;;;;;;;3.30;1.80;;;22.30;99.90;;;;;;5055318;28;20175;-65
2022/09/14 03:15:32;;;;;;;2.35;1.50;;;22.10;99.90;;;;;;5055296;28;20072;-65
2022/09/14 03:17:58;;;;;;;3.90;1.60;;;21.90;99.90;;;;;;5055053;28;20535;-71
2022/09/14 03:20:26;;;;;;;7.45;1.80;;;22.00;99.90;;;;;;5055069;28;20045;-66
2022/09/14 03:22:52;;;;;;;3.25;1.70;;;21.90;99.90;;;;;;5054764;28;20407;-67
2022/09/14 03:25:18;;;;;;;5.18;1.48;;;21.90;99.90;;;;;;5054854;28;20131;-72
2022/09/14 03:27:53;;;;;;;3.00;2.65;;;21.70;99.90;;;;;;5054630;28;20071;-71
2022/09/14 03:30:20;;;;;;;5.78;2.13;;;21.70;99.90;;;;;;5054763;28;20094;-70
2022/09/14 03:32:46;;;;;;;7.22;1.55;;;21.80;99.90;;;;;;5054599;28;20047;-72
2022/09/14 03:35:13;;;;;;;6.35;2.00;;;21.70;99.90;;;;;;5054448;28;20060;-74
2022/09/14 03:37:41;;;;;;;4.72;1.60;;;21.70;99.90;;;;;;5054594;28;20051;-70
2022/09/14 03:40:12;;;;;;;6.38;1.80;;;21.90;99.90;;;;;;5054598;28;20048;-65
2022/09/14 03:42:42;;;;;;;5.10;1.50;;;21.90;99.90;;;;;;5054403;28;20045;-71
2022/09/14 03:45:09;;;;;;;3.33;1.60;;;21.90;99.90;;;;;;5053992;28;20037;-65
2022/09/14 03:47:35;;;;;;;2.20;1.50;;;21.80;99.90;;;;;;5053998;28;20033;-65
2022/09/14 03:50:01;;;;;;;3.83;1.60;;;21.80;99.90;;;;;;5053383;28;20033;-68
2022/09/14 03:52:27;;;;;;;2.15;1.70;;;21.80;99.90;;;;;;5054290;28;20029;-65
2022/09/14 03:54:53;;;;;;;3.83;1.60;;;21.90;99.90;;;;;;5054433;28;20041;-66
2022/09/14 03:57:18;;;;;;;2.45;1.42;;;21.80;99.90;;;;;;5054224;28;20044;-72
2022/09/14 03:59:44;;;;;;;2.05;1.50;;;21.80;99.90;;;;;;5053978;28;20041;-71
2022/09/14 04:02:10;;;;;;;5.95;1.90;;;21.90;99.90;;;;;;5053875;28;20053;-70
2022/09/14 04:04:36;;;;;;;5.68;1.65;;;22.00;99.90;;;;;;5054316;28;20412;-72
2022/09/14 04:07:01;;;;;;;2.72;1.50;;;21.90;99.90;;;;;;5054336;28;20124;-70
2022/09/14 04:09:27;;;;;;;2.47;1.48;;;21.90;99.90;;;;;;5054215;28;20029;-72
2022/09/14 04:11:53;;;;;;;5.20;2.00;;;21.90;99.90;;;;;;5054362;28;20101;-65
2022/09/14 04:14:19;;;;;;;4.47;1.60;;;21.90;99.90;;;;;;5054117;28;20404;-67
2022/09/14 04:16:45;;;;;;;4.43;1.58;;;21.90;99.90;;;;;;5054208;28;20044;-65
2022/09/14 04:19:11;;;;;;;2.58;1.40;;;21.90;99.90;;;;;;5053591;28;20409;-68
2022/09/14 04:21:38;;;;;;;2.55;1.77;;;21.90;99.90;;;;;;5053572;28;20048;-72
2022/09/14 04:24:04;;;;;;;2.58;1.60;;;21.90;99.90;;;;;;5053877;28;20514;-69
2022/09/14 04:26:30;;;;;;;3.97;1.40;;;21.80;99.90;;;;;;5053409;28;20116;-72
2022/09/14 04:28:57;;;;;;;3.13;1.63;;;21.90;99.90;;;;;;5053846;28;20450;-65
2022/09/14 04:31:24;;;;;;;5.38;1.77;;;21.90;99.90;;;;;;5053900;28;20048;-70
2022/09/14 04:33:50;;;;;;;1.88;1.55;;;21.90;99.90;;;;;;5053971;28;20504;-72
2022/09/14 04:36:19;;;;;;;5.15;1.80;;;21.90;99.90;;;;;;5052128;28;20044;-69
2022/09/14 04:38:45;;;;;;;2.88;1.50;;;21.90;99.90;;;;;;5052739;28;20033;-64
2022/09/14 04:41:14;;;;;;;3.10;1.90;;;21.90;99.90;;;;;;5051868;28;20377;-66
2022/09/14 04:43:41;;;;;;;2.63;1.52;;;21.90;99.90;;;;;;5066264;28;20107;-65
2022/09/14 04:46:11;;;;;;;2.17;1.60;;;21.80;99.90;;;;;;5053227;28;20037;-65
2022/09/14 04:48:37;;;;;;;5.65;1.95;;;21.80;99.90;;;;;;5051869;28;20075;-65
2022/09/14 04:51:12;;;;;;;4.38;1.95;;;21.80;99.90;;;;;;5051579;28;20515;-65
2022/09/14 04:53:39;;;;;;;4.43;1.80;;;21.80;99.90;;;;;;5052572;28;20115;-65
2022/09/14 04:56:08;;;;;;;2.38;1.58;;;21.80;99.90;;;;;;5049787;28;20037;-65
2022/09/14 04:58:39;;;;;;;3.28;1.58;;;21.80;99.90;;;;;;5035632;28;20045;-65
2022/09/14 05:01:09;;;;;;;4.18;2.05;;;21.70;99.90;;;;;;5030866;28;20634;-65
2022/09/14 05:03:39;;;;;;;5.00;2.03;;;21.70;99.90;;;;;;5032231;28;20389;-66
2022/09/14 05:06:08;;;;;;;3.45;1.90;;;21.70;99.90;;;;;;5030984;28;20065;-65
2022/09/14 05:08:35;;;;;;;2.80;1.75;;;21.60;99.90;;;;;;5031901;28;20120;-69
2022/09/14 05:11:01;;;;;;;2.00;1.23;;;21.60;99.90;;;;;;5030983;28;20040;-66
2022/09/14 05:13:27;;;;;;;4.80;1.70;;;21.60;99.90;;;;;;5035637;28;20091;-65
2022/09/14 05:15:53;;;;;;;7.43;2.40;;;21.50;99.90;;;;;;5053145;28;20040;-72
2022/09/14 05:18:19;;;;;;;5.68;1.77;;;21.50;99.90;;;;;;5051384;28;20125;-71
2022/09/14 05:20:45;;;;;;;6.25;1.65;;;21.50;99.90;;;;;;5041796;28;20128;-65
2022/09/14 05:23:11;;;;;;;8.30;1.83;;;21.50;99.90;;;;;;5044727;28;20041;-65
2022/09/14 05:25:37;;;;;;;3.70;1.50;;;21.50;99.90;;;;;;5051636;28;20492;-72
2022/09/14 05:28:03;;;;;;;5.82;1.30;;;21.40;99.90;;;;;;5052168;28;20125;-71
2022/09/14 05:30:29;;;;;;;2.38;1.20;;;21.20;99.90;;;;;;5054053;28;20063;-71
2022/09/14 05:32:54;;;;;;;4.60;1.77;;;21.10;99.90;;;;;;5055909;28;20072;-64
2022/09/14 05:35:20;;;;;;;2.35;1.50;;;21.00;99.90;;;;;;5056583;28;20406;-71
2022/09/14 05:37:46;;;;;;;5.45;1.70;;;20.90;99.90;;;;;;5040599;28;20090;-65
2022/09/14 05:40:12;;;;;;;3.47;1.65;;;20.90;99.90;;;;;;5046070;28;20032;-68
2022/09/14 05:42:37;;;;;;;5.60;1.90;;;20.90;99.90;;;;;;5051317;28;20524;-65
2022/09/14 05:45:04;;;;;;;1.75;1.30;;;20.90;99.90;;;;;;5037070;28;20044;-69
2022/09/14 05:47:30;;;;;;;6.00;1.48;;;20.80;99.90;;;;;;5036505;28;20041;-70
2022/09/14 05:49:57;;;;;;;2.40;1.48;;;20.70;99.90;;;;;;5035596;28;20068;-64
2022/09/14 05:52:23;;;;;;;3.97;1.58;;;20.80;99.90;;;;;;5053379;28;20041;-65
2022/09/14 05:54:49;;;;;;;2.88;1.45;;;20.70;99.90;;;;;;5056350;28;20060;-64
2022/09/14 05:57:15;;;;;;;4.13;1.55;;;20.70;99.90;;;;;;5055018;28;20405;-67
2022/09/14 05:59:40;;;;;;;6.38;2.45;;;20.70;99.90;;;;;;5038690;28;20052;-71
2022/09/14 06:02:08;;;;;;;2.95;1.17;;;20.80;99.90;;;;;;5042135;28;20098;-71
2022/09/14 06:04:34;;;;;;;3.33;1.35;;;20.90;99.90;;;;;;5040978;28;20048;-66
2022/09/14 06:07:00;;;;;;;2.95;1.23;;;20.90;99.90;;;;;;5054840;28;20094;-65
2022/09/14 06:09:26;;;;;;;2.55;1.27;;;21.00;99.90;;;;;;5054528;28;20037;-65
2022/09/14 06:11:52;;;;;;;2.35;1.02;;;21.10;99.90;;;;;;5054996;28;20051;-70
2022/09/14 06:14:19;;;;;;;4.63;1.40;;;21.10;99.90;;;;;;5054740;28;20167;-65
2022/09/14 06:16:45;;;;;;;2.13;0.95;;;21.30;99.90;;;;;;5054925;28;20115;-70
2022/09/14 06:19:13;;;;;;;4.40;1.35;;;21.30;99.90;;;;;;5054968;28;20117;-65
2022/09/14 06:21:38;;;;;;;7.07;1.55;;;21.30;99.90;;;;;;5055731;28;20099;-64
2022/09/14 06:24:05;;;;;;;2.85;1.20;;;21.20;99.90;;;;;;5055966;28;20044;-68
2022/09/14 06:26:31;;;;;;;3.35;1.67;;;21.20;99.90;;;;;;5056329;28;20033;-71
2022/09/14 06:28:57;;;;;;;4.18;1.90;;;21.10;99.90;;;;;;5056174;28;20044;-65
2022/09/14 06:31:24;;;;;;;5.50;2.08;;;21.00;99.90;;;;;;5056169;28;20439;-72
2022/09/14 06:33:50;;;;;;;4.53;1.88;;;20.90;99.90;;;;;;5055980;28;20203;-72
2022/09/14 06:36:22;;;;;;;5.63;1.50;;;20.90;99.90;;;;;;5055896;28;20068;-71
2022/09/14 06:38:48;;;;;;;4.93;1.75;;;21.00;99.90;;;;;;5055884;28;20039;-71
2022/09/14 06:41:17;;;;;;;5.78;1.55;;;21.10;99.90;;;;;;5055308;28;20114;-66
2022/09/14 06:43:43;;;;;;;5.07;1.63;;;21.10;99.90;;;;;;5055595;28;20709;-68
2022/09/14 06:46:13;;;;;;;2.13;1.40;;;21.10;99.90;;;;;;5055439;28;20047;-72
2022/09/14 06:49:03;;;;;;;5.70;1.92;;;21.10;99.90;;;;;;5055598;28;20040;-72
2022/09/14 06:51:33;;;;;;;4.05;2.30;;;21.00;99.90;;;;;;5055250;28;20037;-66
2022/09/14 06:54:00;;;;;;;5.70;2.47;;;20.80;99.90;;;;;;5054993;28;20215;-65
2022/09/14 06:56:35;;;;;;;7.72;2.58;;;20.80;99.90;;;;;;5054597;28;20041;-70
2022/09/14 06:59:01;;;;;;;5.18;2.88;;;20.70;99.90;;;;;;5054476;28;20561;-66
2022/09/14 07:01:28;;;;;;;4.28;2.30;;;20.70;99.90;;;;;;5054550;28;20056;-70
2022/09/14 07:03:54;;;;;;;7.18;2.70;;;20.70;99.90;;;;;;5054656;28;20128;-65
2022/09/14 07:06:22;;;;;;;8.50;3.72;;;20.60;99.90;;;;;;5054543;28;20049;-65
2022/09/14 07:08:49;;;;;;;6.07;2.38;;;20.60;99.90;;;;;;5054413;28;20048;-65
2022/09/14 07:11:20;;;;;;;3.60;2.20;;;20.60;99.90;;;;;;5054094;28;20040;-66
2022/09/14 07:13:46;;;;;;;3.92;1.90;;;20.60;99.90;;;;;;5054318;28;20094;-64
2022/09/14 07:16:13;;;;;;;3.05;1.75;;;20.60;99.90;;;;;;5054181;28;20037;-67
2022/09/14 07:18:39;;;;;;;4.15;1.70;;;20.70;99.90;;;;;;5053395;28;20045;-65
2022/09/14 07:21:16;;;;;;;3.15;1.60;;;20.70;99.90;;;;;;5051998;28;20044;-65
2022/09/14 07:23:44;;;;;;;3.78;1.80;;;20.70;99.90;;;;;;5052833;28;20075;-75
2022/09/14 07:26:19;;;;;;;3.42;1.55;;;20.60;99.90;;;;;;5051532;28;20780;-65
2022/09/14 07:28:47;;;;;;;1.63;1.30;;;20.60;99.90;;;;;;5052974;28;20588;-64
2022/09/14 07:31:23;;;;;;;3.00;1.30;;;20.60;99.90;;;;;;5052334;28;20094;-68
2022/09/14 07:33:53;;;;;;;2.88;1.35;;;20.50;99.90;;;;;;5052543;28;20043;-65
2022/09/14 07:36:19;;;;;;;2.80;1.42;;;20.50;99.90;;;;;;5053566;28;20489;-71
2022/09/14 07:38:45;;;;;;;2.67;1.05;;;20.40;99.90;;;;;;5054114;28;20041;-68
2022/09/14 07:41:11;;;;;;;2.17;0.90;;;20.40;99.90;;;;;;5054295;28;20511;-65
2022/09/14 07:43:37;;;;;;;3.90;1.08;;;20.40;99.90;;;;;;5054497;28;20044;-75
2022/09/14 07:46:04;;;;;;;3.40;0.80;;;20.40;99.90;;;;;;5054644;28;20047;-75
2022/09/14 07:48:31;;;;;;;8.75;1.15;;;20.40;99.90;;;;;;5054760;28;20519;-73
2022/09/14 07:51:01;;;;;;;3.00;1.08;;;20.40;99.90;;;;;;5053210;28;20037;-75
2022/09/14 07:53:28;;;;;;;1.45;0.70;;;20.40;99.90;;;;;;5053406;28;20045;-65
2022/09/14 07:55:58;;;;;;;4.22;1.00;;;20.40;99.90;;;;;;5054636;28;20512;-65
2022/09/14 07:58:23;;;;;;;3.05;0.85;;;20.50;99.90;;;;;;5054489;28;20064;-73
2022/09/14 08:00:49;;;;;;;2.75;1.00;;;20.50;99.90;;;;;;5054637;28;20072;-74
2022/09/14 08:03:15;;;;;;;1.58;0.63;;;20.50;99.90;;;;;;5054383;28;20132;-65
2022/09/14 08:05:41;;;;;;;3.22;1.05;;;20.60;99.90;;;;;;5054166;28;20063;-71
2022/09/14 08:08:06;;;;;;;4.30;0.88;;;20.60;99.90;;;;;;5054318;28;20516;-70
2022/09/14 08:10:34;;;;;;;7.68;1.08;;;20.60;99.90;;;;;;5054319;28;20104;-74
2022/09/14 08:13:00;;;;;;;2.80;0.80;;;20.70;99.90;;;;;;5054336;28;20029;-74
2022/09/14 08:15:27;;;;;;;2.47;0.80;;;20.80;99.90;;;;;;5054209;28;20071;-65
2022/09/14 08:17:53;;;;;;;2.75;1.10;;;20.80;99.90;;;;;;5054130;28;20037;-73
2022/09/14 08:20:19;;;;;;;1.33;0.80;;;20.80;99.90;;;;;;5053996;28;20044;-64
2022/09/14 08:22:44;;;;;;;1.10;0.60;;;20.80;99.90;;;;;;5054092;28;20048;-75
2022/09/14 08:25:11;;;;;;;1.50;0.70;;;20.70;99.90;;;;;;5054090;28;20064;-76
2022/09/14 08:27:38;;;;;;;2.15;0.63;;;20.60;99.90;;;;;;5054113;28;20508;-81
2022/09/14 08:30:05;;;;;;;3.90;0.60;;;20.30;99.90;;;;;;5053889;28;20060;-66
2022/09/14 08:32:31;;;;;;;2.38;0.75;;;20.20;99.90;;;;;;5053818;28;20041;-66
2022/09/14 08:34:57;;;;;;;2.35;0.40;;;20.10;99.90;;;;;;5053844;28;20033;-66
2022/09/14 08:37:23;;;;;;;0.50;0.35;;;20.00;99.90;;;;;;5053771;28;20508;-74
2022/09/14 08:39:48;;;;;;;1.00;0.70;;;20.10;99.90;;;;;;5053801;28;20124;-65
2022/09/14 08:42:17;;;;;;;1.20;0.45;;;20.00;99.90;;;;;;5053674;28;20523;-66
2022/09/14 08:44:43;;;;;;;5.25;1.15;;;20.00;99.90;;;;;;5053873;28;20167;-78
2022/09/14 08:47:11;;;;;;;2.03;0.70;;;20.00;99.90;;;;;;5053858;28;20067;-65
2022/09/14 08:49:53;;;;;;;2.65;0.60;;;20.00;99.90;;;;;;5053886;28;20041;-80
2022/09/14 08:52:42;;;;;;;1.92;0.68;;;20.00;99.90;;;;;;5053973;28;20041;-66
2022/09/14 08:55:19;;;;;;;3.88;0.70;;;20.00;99.90;;;;;;5053919;28;20057;-80
2022/09/14 08:58:05;;;;;;;2.10;0.80;;;20.00;99.90;;;;;;5053755;28;20400;-66
2022/09/14 09:01:03;;;;;;;3.05;0.70;;;20.00;99.90;;;;;;5053876;28;20124;-66
2022/09/14 09:03:51;;;;;;;2.88;0.77;;;20.00;99.90;;;;;;5053787;28;20053;-71
2022/09/14 09:06:36;;;;;;;2.28;0.68;;;20.00;99.90;;;;;;5057829;28;20041;-66
2022/09/14 09:09:26;;;;;;;2.03;0.90;;;20.00;99.90;;;;;;5057850;28;20036;-68
2022/09/14 09:11:54;;;;;;;2.47;0.63;;;20.00;99.90;;;;;;5057892;28;20112;-79
2022/09/14 09:14:33;;;;;;;4.97;0.68;;;20.20;99.90;;;;;;5057489;28;20037;-76
2022/09/14 09:17:03;;;;;;;2.95;0.75;;;20.30;99.90;;;;;;5057575;28;20116;-65
2022/09/14 09:19:35;;;;;;;1.15;0.52;;;20.40;99.90;;;;;;5057580;28;20079;-65
2022/09/14 09:22:05;;;;;;;0.98;0.60;;;20.60;99.90;;;;;;5057460;28;20055;-77
2022/09/14 09:24:40;;;;;;;0.75;0.50;;;20.70;99.90;;;;;;5057492;28;20065;-79
2022/09/14 09:27:14;;;;;;;1.70;0.68;;;20.70;99.90;;;;;;5053925;28;20106;-65
2022/09/14 09:29:42;;;;;;;8.27;0.90;;;21.00;99.90;;;;;;5036723;28;20048;-66
2022/09/14 09:32:14;;;;;;;0.98;0.47;;;21.20;99.90;;;;;;5036155;28;20049;-79
2022/09/14 09:34:39;;;;;;;3.35;0.80;;;21.50;99.90;;;;;;5037315;28;20124;-81
2022/09/14 09:37:11;;;;;;;3.85;0.57;;;21.80;99.90;;;;;;5037122;28;20137;-78
2022/09/14 09:39:40;;;;;;;2.72;0.68;;;;;;;;;;5037203;28;20045;-66
2022/09/14 09:42:19;;;;;;;1.00;0.57;;;22.80;99.90;;;;;;5037130;28;20059;-76
2022/09/14 09:45:02;;;;;;;1.10;0.63;;;23.20;99.90;;;;;;5038149;28;20075;-65
2022/09/14 09:47:33;;;;;;;0.88;0.52;;;23.60;99.90;;;;;;5037899;28;20491;-68
2022/09/14 09:50:20;;;;;;;2.40;0.80;;;23.80;99.90;;;;;;5037010;28;20045;-66
2022/09/14 09:52:58;;;;;;;2.78;0.57;;;23.70;99.90;;;;;;5040864;28;20067;-66
2022/09/14 09:55:37;;;;;;;2.33;0.70;;;23.60;99.90;;;;;;5056823;28;20108;-66
2022/09/14 09:58:33;;;;;;;4.10;0.80;;;23.60;99.90;;;;;;5056410;28;20060;-75
2022/09/14 10:01:02;;;;;;;3.72;0.93;;;23.90;99.90;;;;;;5056650;28;20049;-67
2022/09/14 10:03:32;;;;;;;1.17;1.08;;;24.30;99.90;;;;;;5056617;28;20056;-72
2022/09/14 10:06:10;;;;;;;2.93;1.00;;;24.50;99.90;;;;;;5047011;28;20576;-76
2022/09/14 10:08:46;;;;;;;1.33;0.60;;;24.20;99.90;;;;;;5036466;28;20500;-75
2022/09/14 10:11:31;;;;;;;1.13;0.60;;;;;;;;;;5036355;28;20034;-76
2022/09/14 10:13:57;;;;;;;5.85;1.10;;;24.80;99.90;;;;;;5036565;28;20037;-67
2022/09/14 10:16:28;;;;;;;2.47;0.90;;;25.30;99.90;;;;;;5055472;28;20388;-70
2022/09/14 10:18:54;;;;;;;2.50;0.80;;;25.50;99.90;;;;;;5056353;28;20036;-68
2022/09/14 10:21:23;;;;;;;1.92;0.55;;;25.70;99.90;;;;;;5056386;28;20051;-75
2022/09/14 10:24:24;;;;;;;3.17;1.13;;;25.60;99.90;;;;;;5055042;28;20442;-75
2022/09/14 10:26:49;;;;;;;1.95;0.88;;;25.60;99.90;;;;;;5056291;28;20045;-71
2022/09/14 10:29:27;;;;;;;1.70;0.80;;;25.50;99.90;;;;;;5056052;28;20036;-73
2022/09/14 10:32:00;;;;;;;3.45;0.75;;;25.30;99.90;;;;;;5056237;28;20404;-74
2022/09/14 10:34:26;;;;;;;1.52;0.77;;;25.20;99.90;;;;;;5045008;28;20079;-66
2022/09/14 10:37:07;;;;;;;2.03;0.65;;;25.10;99.90;;;;;;5046428;28;20453;-74
2022/09/14 10:39:45;;;;;;;1.95;0.65;;;25.40;99.90;;;;;;5055872;28;20041;-69
2022/09/14 10:42:49;;;;;;;3.03;1.23;;;25.70;99.90;;;;;;5055849;28;20079;-74
2022/09/14 10:45:51;;;;;;;1.70;0.90;;;25.50;99.90;;;;;;5018780;28;20068;-66
2022/09/14 10:48:24;;;;;;;3.33;1.52;;;25.40;99.90;;;;;;5042632;28;20094;-67
2022/09/14 10:51:17;;;;;;;0.88;0.52;;;25.60;99.90;;;;;;5055784;28;20063;-70
2022/09/14 10:53:54;;;;;;;17.30;6.60;;;25.90;99.90;;;;;;5055703;28;20507;-68
2022/09/14 10:56:56;;;;;;;45.58;16.33;;;25.70;99.90;;;;;;5053201;28;20049;-72
2022/09/14 10:59:49;;;;;;;12.30;5.65;;;25.60;99.90;;;;;;5051741;28;20041;-66
2022/09/14 11:02:18;;;;;;;4.10;1.98;;;25.50;99.90;;;;;;5046736;28;20064;-66
2022/09/14 11:04:43;;;;;;;4.32;1.20;;;25.30;99.90;;;;;;5053239;28;20094;-66
2022/09/14 11:07:17;;;;;;;3.17;1.30;;;25.00;99.90;;;;;;5050749;28;20116;-66
2022/09/14 11:10:14;;;;;;;2.45;1.52;;;24.80;99.90;;;;;;5049661;28;20045;-74
2022/09/14 11:13:17;;;;;;;2.45;1.15;;;25.20;99.90;;;;;;5033279;28;20045;-68
2022/09/14 11:16:03;;;;;;;2.38;1.23;;;25.00;99.90;;;;;;5035713;28;20037;-71
2022/09/14 11:18:31;;;;;;;6.28;1.52;;;24.70;99.90;;;;;;5033187;28;20042;-69
2022/09/14 11:21:06;;;;;;;3.40;1.10;;;24.70;99.90;;;;;;5037846;28;20047;-67
2022/09/14 11:24:02;;;;;;;2.83;1.35;;;24.80;99.90;;;;;;5051646;28;20080;-70
2022/09/14 11:26:49;;;;;;;1.83;0.82;;;24.80;99.90;;;;;;5053210;28;20041;-65
2022/09/14 11:29:22;;;;;;;1.73;0.80;;;24.50;99.90;;;;;;5049945;28;20365;-66
2022/09/14 11:32:17;;;;;;;1.80;0.95;;;24.60;99.90;;;;;;5054390;28;20098;-66
2022/09/14 11:34:58;;;;;;;1.55;0.95;;;24.50;99.90;;;;;;5054155;28;20037;-67
2022/09/14 11:37:36;;;;;;;1.35;0.90;;;24.90;99.90;;;;;;5051561;28;20374;-67
2022/09/14 11:40:27;;;;;;;1.20;1.05;;;25.30;99.90;;;;;;5054170;28;20051;-73
2022/09/14 11:43:14;;;;;;;1.67;0.80;;;25.50;99.90;;;;;;5051283;28;20807;-72
2022/09/14 11:45:47;;;;;;;1.35;0.88;;;25.50;99.90;;;;;;5053480;28;20044;-72
2022/09/14 11:48:18;;;;;;;2.72;0.75;;;25.20;99.90;;;;;;5052298;28;20041;-74
2022/09/14 11:50:46;;;;;;;1.17;0.85;;;25.20;99.90;;;;;;5052138;28;20053;-65
2022/09/14 11:53:14;;;;;;;1.23;0.88;;;25.50;99.90;;;;;;5053082;28;20116;-73
2022/09/14 11:55:47;;;;;;;3.22;1.48;;;25.50;99.90;;;;;;5053048;28;20041;-72
2022/09/14 11:58:17;;;;;;;2.30;1.15;;;25.30;99.90;;;;;;5045544;28;20045;-68
2022/09/14 12:00:43;;;;;;;;;;;25.40;99.90;;;;;;5043261;28;20040;-73
2022/09/14 12:03:19;;;;;;;4.68;1.42;;;25.60;99.90;;;;;;5033365;28;20284;-69
2022/09/14 12:05:46;;;;;;;2.63;0.60;;;25.40;99.90;;;;;;5033063;28;20041;-67
2022/09/14 12:08:38;;;;;;;1.67;1.02;;;25.40;99.90;;;;;;5043135;28;20120;-68
2022/09/14 12:11:06;;;;;;;1.85;1.15;;;25.30;99.90;;;;;;5051524;28;20055;-66
2022/09/14 12:13:33;;;;;;;4.63;0.80;;;25.30;99.90;;;;;;5051067;28;20036;-71
2022/09/14 12:16:08;;;;;;;3.22;0.80;;;25.30;99.90;;;;;;5051463;28;20131;-67
2022/09/14 12:18:41;;;;;;;2.53;1.00;;;25.30;99.90;;;;;;5051562;28;20086;-65
2022/09/14 12:21:15;;;;;;;3.40;1.02;;;25.10;99.90;;;;;;5042066;28;20033;-72
2022/09/14 12:23:45;;;;;;;1.95;0.82;;;25.00;99.90;;;;;;5051478;28;20045;-74
2022/09/14 12:26:14;;;;;;;2.03;0.80;;;25.00;99.90;;;;;;5051516;28;20373;-70
2022/09/14 12:28:47;;;;;;;2.47;1.43;;;25.00;99.90;;;;;;5046113;28;20044;-65
2022/09/14 12:31:28;;;;;;;1.42;1.00;;;25.00;99.90;;;;;;5043007;28;20365;-74
2022/09/14 12:34:30;;;;;;;1.00;0.70;;;25.00;99.90;;;;;;5052140;28;20052;-66
2022/09/14 12:36:59;;;;;;;2.90;0.88;;;25.10;99.90;;;;;;5041631;28;20210;-67
2022/09/14 12:39:34;;;;;;;1.05;0.80;;;25.10;99.90;;;;;;5051717;28;20519;-66
2022/09/14 12:42:32;;;;;;;1.38;0.90;;;25.20;99.90;;;;;;5051290;28;20451;-66
2022/09/14 12:45:36;;;;;;;1.88;1.00;;;25.60;99.90;;;;;;5048774;28;20132;-65
2022/09/14 12:48:02;;;;;;;2.03;1.20;;;25.70;99.90;;;;;;5041380;28;20406;-65
2022/09/14 12:50:33;;;;;;;2.20;0.88;;;25.70;99.90;;;;;;5033653;28;20041;-71
2022/09/14 12:53:24;;;;;;;1.67;0.80;;;25.60;99.90;;;;;;5031290;28;20045;-65
2022/09/14 12:56:03;;;;;;;1.85;0.80;;;25.50;99.90;;;;;;5031149;28;20092;-66
2022/09/14 12:58:44;;;;;;;2.13;0.90;;;25.60;99.90;;;;;;5031399;28;20053;-65
2022/09/14 13:01:28;;;;;;;1.92;1.00;;;25.60;99.90;;;;;;5033208;28;20041;-76
2022/09/14 13:03:56;;;;;;;1.23;0.70;;;25.50;99.90;;;;;;5033388;28;20045;-65
2022/09/14 13:06:25;;;;;;;7.30;2.20;;;25.60;99.90;;;;;;5046784;28;20492;-73
2022/09/14 13:08:57;;;;;;;3.55;1.00;;;25.70;99.90;;;;;;5031254;28;20042;-64
2022/09/14 13:11:29;;;;;;;4.28;0.70;;;25.80;99.90;;;;;;5031505;28;20056;-65
2022/09/14 13:13:56;;;;;;;6.85;0.93;;;25.90;99.90;;;;;;5031850;28;20057;-71